Share

Academy, SD

8:32 AM CDT on April 24, 2014 (GMT -0500)
Winner (KICR) Elev 2031 ft | 43.39 °N, 99.84 °W | Change Station
Active Advisory: Fire Weather Warning

Current weather conditions updated 39 minutes ago

Clear
Clear
45 °F
Feels Like 38 °F
N
15
Wind Variable Wind from WNW
Sunrise 6:38 AM
Sunset 8:29 PM
Moon Waning Crescent

Today is forecast to be Much Cooler than yesterday.

Pressure 29.81 in
Visibility 10.0 miles
Clouds Clear
Windchill 38 °F
Dew Point 33 °F
Humidity 63%
Rainfall 0.00 in
Snow Depth Not available.
UV 1 out of 16
Pollen 10.70 out of 12
Air Quality Not available.
Flu Activity Sporadic
METAR KICR 241253Z AUTO 29013KT 10SM CLR 07/01 A2980 RMK AO2 SLP093 T00720006

More Conditions Fewer Conditions

Pressure 29.81 in
Visibility 10.0 miles
Clouds Clear
Windchill 38 °F
Dew Point 33 °F
Humidity 63%
Rainfall 0.00 in
Snow Depth Not available.
UV 1 out of 16
Pollen 10.70 out of 12
Air Quality Not available.
Flu Activity Sporadic
METAR KICR 241253Z AUTO 29013KT 10SM CLR 07/01 A2980 RMK AO2 SLP093 T00720006

More Conditions Fewer Conditions

10-Day Weather Forecast

Almanac

Astronomy

Apr. 24, 2014 Rise Set
Actual Time 6:38 AM CDT 8:29 PM CDT
Civil Twilight 6:08 AM CDT 9:00 PM CDT
Nautical Twilight 5:30 AM CDT 9:37 PM CDT
Astronomical Twilight 4:50 AM CDT 10:18 PM CDT
Moon 3:59 AM CDT 3:38 PM CDT
Length of Visible Light 14h 51m
Length of Day
13h 50m
Tomorrow will be 2m 42s longer.
Waning Crescent, 25% of the Moon is Illuminated
Today
Waning Crescent
Apr 29
New
May 6
First Quarter
May 14
Full
May 21
Last Quarter

Today's Extremes

State Highs State Lows

Community

  • Stacked
    Stacked
  • clouds approaching Red Sox Nation
    clouds approaching Red Sox Nation
  • Balance
    Balance
  • Citysky
    Citysky
  • Nestled In
    Nestled In

WunderPhotos

Upload Photos

1,704,605 photos uploaded!

Nearby

Snow Depth

Station Depth Elevation
North Rapid Creek 10 in 6130 ft
Blind Park 10 in 6890 ft

Coastal Water Temperatures

Place Temperature
No Stations Reporting

Earthquake Activity

City Distance Mag. Time & Date
No recent earthquake activity has been reported nearby.
Minimum magnitude displayed is 2.5.

Nearby Weather Stations

There are no personal weather stations in this area.

What do you think?

We're not finished. Please let us know what you like, what you don't like, and what you are still missing.